Time;durP1;ratioP1;P1;durP2;ratioP2;P2;SDS_P1;SDS_P2;PMS_P1;PMS_P2;Temp;Humidity;BMP_temperature;BMP_pressure;BME280_temperature;BME280_humidity;BME280_pressure;Samples;Min_cycle;Max_cycle;Signal;HPM_P1;HPM_P2
2022/03/27 00:00:23;;;;;;;26.13;11.35;;;7.10;99.90;;;;;;5006887;28;20435;-51
2022/03/27 00:02:49;;;;;;;32.25;13.13;;;7.00;99.90;;;;;;5002187;28;20382;-51
2022/03/27 00:05:14;;;;;;;24.73;12.10;;;7.00;99.90;;;;;;5007951;28;20452;-51
2022/03/27 00:07:40;;;;;;;28.48;12.30;;;6.90;99.90;;;;;;5000932;28;20457;-51
2022/03/27 00:10:06;;;;;;;28.93;11.90;;;6.90;99.90;;;;;;5004218;28;20389;-51
2022/03/27 00:12:32;;;;;;;30.65;13.02;;;6.80;99.90;;;;;;4988545;28;20815;-50
2022/03/27 00:14:58;;;;;;;31.53;11.90;;;6.60;99.90;;;;;;5002806;28;20492;-51
2022/03/27 00:17:24;;;;;;;37.58;14.07;;;6.50;99.90;;;;;;5006185;28;20417;-51
2022/03/27 00:19:49;;;;;;;27.52;13.07;;;6.40;99.90;;;;;;4999974;28;20409;-51
2022/03/27 00:22:15;;;;;;;33.40;12.80;;;6.30;99.90;;;;;;5003034;28;20417;-51
2022/03/27 00:24:41;;;;;;;29.60;12.70;;;6.30;99.90;;;;;;5003189;28;20405;-51
2022/03/27 00:27:07;;;;;;;28.70;13.23;;;6.20;99.90;;;;;;5004931;28;20408;-51
2022/03/27 00:29:33;;;;;;;36.72;13.15;;;6.20;99.90;;;;;;5006386;28;20408;-50
2022/03/27 00:31:59;;;;;;;31.90;13.02;;;6.50;99.90;;;;;;5004286;28;20408;-51
2022/03/27 00:34:25;;;;;;;30.93;13.93;;;6.20;99.90;;;;;;5007428;28;20758;-51
2022/03/27 00:36:51;;;;;;;28.45;13.10;;;6.20;99.90;;;;;;5007934;28;20415;-51
2022/03/27 00:39:17;;;;;;;24.60;12.35;;;6.10;99.90;;;;;;5006897;28;20412;-51
2022/03/27 00:41:45;;;;;;;22.92;12.82;;;6.20;99.90;;;;;;5004499;28;20402;-51
2022/03/27 00:44:11;;;;;;;28.98;13.68;;;6.20;99.90;;;;;;4991439;28;20397;-51
2022/03/27 00:46:37;;;;;;;28.88;13.18;;;6.20;99.90;;;;;;5003567;28;20400;-50
2022/03/27 00:49:03;;;;;;;28.20;12.23;;;6.10;99.90;;;;;;5006041;28;20421;-51
2022/03/27 00:51:29;;;;;;;25.37;11.60;;;6.10;99.90;;;;;;5007351;28;20405;-51
2022/03/27 00:53:54;;;;;;;34.77;13.33;;;6.10;99.90;;;;;;5001735;28;20940;-51
2022/03/27 00:56:20;;;;;;;30.23;12.95;;;6.10;99.90;;;;;;5003939;28;20410;-51
2022/03/27 00:58:45;;;;;;;28.30;12.77;;;6.00;99.90;;;;;;5002100;28;20965;-51
2022/03/27 01:01:24;;;;;;;29.30;12.48;;;6.10;99.90;;;;;;5007666;28;20403;-51
2022/03/27 01:03:53;;;;;;;32.50;14.05;;;6.00;99.90;;;;;;5002240;28;20384;-51
2022/03/27 01:06:31;;;;;;;40.95;14.10;;;5.80;99.90;;;;;;5000957;28;20427;-51
2022/03/27 01:11:41;;;;;;;27.63;12.90;;;5.60;99.90;;;;;;5006054;28;20380;-51
2022/03/27 01:14:07;;;;;;;30.85;13.18;;;5.70;99.90;;;;;;5006303;28;20409;-51
2022/03/27 01:16:44;;;;;;;29.90;13.90;;;5.80;99.90;;;;;;5002291;28;20440;-50
2022/03/27 01:19:15;;;;;;;36.40;13.30;;;5.80;99.90;;;;;;5005975;28;20427;-53
2022/03/27 01:21:42;;;;;;;27.00;12.07;;;6.00;99.90;;;;;;5000005;28;20419;-51
2022/03/27 01:24:09;;;;;;;34.25;13.60;;;5.90;99.90;;;;;;5001212;28;20497;-51
2022/03/27 01:26:36;;;;;;;30.42;14.10;;;6.00;99.90;;;;;;5001213;28;20413;-50
2022/03/27 01:29:02;;;;;;;32.97;15.68;;;5.90;99.90;;;;;;5004322;28;20941;-50
2022/03/27 01:31:28;;;;;;;32.28;15.02;;;5.80;99.90;;;;;;5005144;28;20397;-51
2022/03/27 01:33:54;;;;;;;27.40;14.50;;;5.60;99.90;;;;;;5002914;28;20912;-51
2022/03/27 01:36:31;;;;;;;31.73;14.80;;;5.50;99.90;;;;;;5006187;28;20436;-50
2022/03/27 01:38:57;;;;;;;30.85;13.10;;;5.50;99.90;;;;;;5005107;28;20423;-51
2022/03/27 01:41:25;;;;;;;29.98;13.30;;;5.40;99.90;;;;;;5004942;28;20495;-51
2022/03/27 01:43:51;;;;;;;29.43;12.30;;;5.30;99.90;;;;;;5006825;28;20397;-51
2022/03/27 01:46:18;;;;;;;28.77;12.45;;;5.40;99.90;;;;;;5009390;28;20389;-52
2022/03/27 01:48:44;;;;;;;30.37;13.17;;;5.40;99.90;;;;;;5009008;28;20395;-51
2022/03/27 01:51:09;;;;;;;33.80;13.40;;;5.50;99.90;;;;;;5009834;28;20460;-51
2022/03/27 01:53:41;;;;;;;28.55;13.38;;;5.30;99.90;;;;;;5008980;28;20423;-50
2022/03/27 01:56:08;;;;;;;29.07;12.40;;;5.40;99.90;;;;;;4992040;28;20819;-51
2022/03/27 01:58:38;;;;;;;27.80;12.10;;;5.40;99.90;;;;;;4991794;28;20464;-50
2022/03/27 02:01:06;;;;;;;25.67;12.85;;;5.40;99.90;;;;;;5009628;28;20410;-51
2022/03/27 02:03:32;;;;;;;24.58;11.45;;;5.30;99.90;;;;;;5009551;28;20399;-51
2022/03/27 02:05:57;;;;;;;28.52;12.75;;;5.40;99.90;;;;;;5009070;28;20389;-51
2022/03/27 02:08:23;;;;;;;27.10;12.60;;;5.30;99.90;;;;;;5009441;28;20758;-51
2022/03/27 02:10:49;;;;;;;31.20;12.05;;;5.30;99.90;;;;;;5008510;28;20901;-51
2022/03/27 02:13:21;;;;;;;34.35;13.20;;;5.30;99.90;;;;;;5009511;28;20786;-51
2022/03/27 02:15:49;;;;;;;29.95;13.23;;;5.20;99.90;;;;;;5003301;28;20424;-51
2022/03/27 02:18:16;;;;;;;34.38;12.27;;;5.20;99.90;;;;;;4991608;28;20445;-51
2022/03/27 02:20:44;;;;;;;31.70;12.13;;;5.10;99.90;;;;;;4988982;28;20405;-51
2022/03/27 02:23:11;;;;;;;28.23;12.27;;;5.10;99.90;;;;;;4990183;28;20418;-52
2022/03/27 02:25:36;;;;;;;29.75;12.20;;;5.20;99.90;;;;;;4990139;28;20454;-51
2022/03/27 02:28:06;;;;;;;26.63;12.45;;;5.10;99.90;;;;;;5009509;28;20377;-51
2022/03/27 02:30:32;;;;;;;29.60;12.87;;;5.10;99.90;;;;;;5009224;28;20750;-51
2022/03/27 02:32:57;;;;;;;29.77;12.45;;;5.10;99.90;;;;;;5008846;28;20396;-51
2022/03/27 02:35:23;;;;;;;30.10;12.70;;;5.00;99.90;;;;;;5009059;28;20393;-51
2022/03/27 02:37:49;;;;;;;27.65;12.10;;;4.90;99.90;;;;;;5009903;28;20400;-51
2022/03/27 02:40:15;;;;;;;31.67;13.47;;;5.00;99.90;;;;;;5013181;28;20898;-51
2022/03/27 02:42:41;;;;;;;29.27;13.27;;;4.90;99.90;;;;;;5012144;28;20512;-51
2022/03/27 02:45:08;;;;;;;30.45;13.63;;;4.80;99.90;;;;;;5012730;28;20475;-53
2022/03/27 02:47:34;;;;;;;29.67;14.18;;;4.60;99.90;;;;;;5006453;28;20958;-50
2022/03/27 02:50:00;;;;;;;32.22;13.65;;;4.60;99.90;;;;;;5009744;28;20389;-53
2022/03/27 02:52:26;;;;;;;33.10;13.95;;;4.60;99.90;;;;;;4999325;28;20532;-53
2022/03/27 02:54:51;;;;;;;30.67;13.15;;;4.50;99.90;;;;;;4992451;28;20497;-54
2022/03/27 02:57:17;;;;;;;33.17;13.30;;;4.50;99.90;;;;;;4991710;28;20437;-53
2022/03/27 02:59:43;;;;;;;28.60;13.02;;;4.50;99.90;;;;;;4992197;28;20382;-53
2022/03/27 03:02:09;;;;;;;31.13;12.63;;;4.50;99.90;;;;;;4992971;28;20927;-53
2022/03/27 03:04:35;;;;;;;31.70;13.40;;;4.50;99.90;;;;;;4992493;28;20395;-53
2022/03/27 03:07:01;;;;;;;25.02;12.80;;;4.40;99.90;;;;;;4992698;28;20387;-53
2022/03/27 03:09:27;;;;;;;25.17;11.90;;;4.40;99.90;;;;;;4993232;28;20760;-53
2022/03/27 03:11:53;;;;;;;29.08;12.75;;;4.30;99.90;;;;;;4991989;28;20397;-53
2022/03/27 03:14:19;;;;;;;27.90;12.43;;;4.30;99.90;;;;;;4992772;28;21126;-53
2022/03/27 03:16:46;;;;;;;28.55;12.07;;;4.30;99.90;;;;;;4991727;28;20756;-54
2022/03/27 03:19:12;;;;;;;27.10;12.13;;;4.40;99.90;;;;;;4992695;28;20390;-54
2022/03/27 03:21:40;;;;;;;29.58;13.27;;;4.40;99.90;;;;;;5003283;28;20747;-53
2022/03/27 03:24:06;;;;;;;28.60;12.13;;;4.40;99.90;;;;;;5012202;28;20380;-53
2022/03/27 03:26:32;;;;;;;30.00;13.13;;;4.40;99.90;;;;;;5012559;28;20429;-53
2022/03/27 03:28:58;;;;;;;28.08;13.82;;;4.30;99.90;;;;;;5011142;28;20417;-53
2022/03/27 03:31:23;;;;;;;28.42;13.50;;;4.20;99.90;;;;;;5011872;28;20386;-53
2022/03/27 03:33:49;;;;;;;27.97;12.70;;;4.30;1.00;;;;;;5011373;28;20808;-53
2022/03/27 03:36:15;;;;;;;30.73;12.10;;;4.30;99.90;;;;;;5011868;28;20448;-54
2022/03/27 03:38:41;;;;;;;29.33;12.50;;;4.20;99.90;;;;;;5011393;28;20379;-53
2022/03/27 03:41:08;;;;;;;30.27;14.07;;;4.20;99.90;;;;;;5011970;28;20385;-54
2022/03/27 03:43:36;;;;;;;24.73;12.88;;;4.20;99.90;;;;;;5010381;28;20393;-53
2022/03/27 03:46:05;;;;;;;32.30;13.05;;;4.10;99.90;;;;;;5011582;28;20435;-53
2022/03/27 03:48:31;;;;;;;31.92;14.90;;;4.00;1.00;;;;;;5011393;28;20377;-54
2022/03/27 03:50:57;;;;;;;31.08;13.20;;;4.10;1.00;;;;;;5011044;28;20416;-53
2022/03/27 03:53:25;;;;;;;26.93;12.23;;;4.20;1.00;;;;;;5011616;28;20392;-53
2022/03/27 03:55:51;;;;;;;26.30;11.97;;;4.30;99.90;;;;;;5010602;28;20420;-53
2022/03/27 03:58:17;;;;;;;30.65;12.90;;;4.30;99.90;;;;;;5011438;28;20450;-54
2022/03/27 04:00:43;;;;;;;27.98;12.68;;;4.30;99.90;;;;;;5010215;28;20389;-53
2022/03/27 04:03:09;;;;;;;27.42;12.48;;;4.30;99.90;;;;;;5011503;28;20474;-53
2022/03/27 04:05:35;;;;;;;30.40;13.40;;;4.30;99.90;;;;;;5011372;28;20869;-53
2022/03/27 04:08:01;;;;;;;25.70;12.67;;;4.20;99.90;;;;;;5011046;28;20542;-54
2022/03/27 04:10:28;;;;;;;29.80;13.30;;;4.30;99.90;;;;;;5011532;28;20385;-53
2022/03/27 04:12:54;;;;;;;32.58;13.73;;;4.10;99.90;;;;;;4993211;28;20791;-53
2022/03/27 04:15:20;;;;;;;29.80;13.50;;;4.00;99.90;;;;;;5010940;28;20385;-54
2022/03/27 04:17:47;;;;;;;29.23;13.40;;;3.90;1.00;;;;;;5004724;28;20874;-53
2022/03/27 04:20:13;;;;;;;28.52;13.10;;;4.20;99.90;;;;;;5005218;28;20412;-53
2022/03/27 04:22:43;;;;;;;33.55;13.48;;;4.00;31.40;;;;;;4996348;28;20436;-52
2022/03/27 04:25:12;;;;;;;31.75;12.35;;;4.00;57.20;;;;;;5006640;28;20392;-53
2022/03/27 04:27:38;;;;;;;31.83;13.85;;;3.90;99.70;;;;;;5010681;28;20417;-53
2022/03/27 04:30:08;;;;;;;29.05;12.20;;;4.20;99.90;;;;;;5011020;28;20426;-53
2022/03/27 04:32:37;;;;;;;27.30;12.05;;;3.80;99.90;;;;;;4998598;28;20426;-54
2022/03/27 04:35:04;;;;;;;31.88;13.48;;;3.80;99.90;;;;;;5001593;28;20434;-53
2022/03/27 04:37:30;;;;;;;29.15;13.18;;;3.80;99.90;;;;;;5005572;28;20409;-53
2022/03/27 04:40:02;;;;;;;29.10;13.17;;;3.70;99.90;;;;;;4998943;28;21022;-53
2022/03/27 04:42:29;;;;;;;34.42;14.15;;;3.70;99.90;;;;;;4991432;28;20382;-53
2022/03/27 04:44:55;;;;;;;29.90;13.05;;;3.60;99.90;;;;;;4990475;28;20379;-53
2022/03/27 04:47:21;;;;;;;30.30;13.40;;;3.60;99.90;;;;;;4990786;28;20934;-53
2022/03/27 04:49:47;;;;;;;32.33;13.27;;;3.60;99.90;;;;;;4990210;28;20386;-53
2022/03/27 04:52:13;;;;;;;30.17;12.43;;;3.60;99.90;;;;;;4991559;28;20402;-53
2022/03/27 04:54:39;;;;;;;29.20;12.23;;;3.70;99.90;;;;;;4990691;28;20490;-52
2022/03/27 04:57:05;;;;;;;31.50;12.95;;;3.70;99.90;;;;;;4990706;28;20792;-53
2022/03/27 04:59:31;;;;;;;30.08;12.20;;;3.70;99.90;;;;;;4989537;28;20931;-53
2022/03/27 05:01:58;;;;;;;27.00;12.80;;;4.70;99.90;;;;;;4989390;28;20466;-53
2022/03/27 05:04:24;;;;;;;30.85;13.18;;;3.60;99.90;;;;;;4991085;28;20409;-53
2022/03/27 05:06:49;;;;;;;30.70;12.27;;;3.70;99.90;;;;;;4990038;28;20399;-53
2022/03/27 05:09:15;;;;;;;28.47;12.60;;;3.70;99.90;;;;;;4990994;28;20390;-53
2022/03/27 05:11:41;;;;;;;29.65;13.25;;;3.70;99.90;;;;;;4989987;28;20365;-52
2022/03/27 05:14:08;;;;;;;31.67;12.65;;;4.20;99.90;;;;;;4998104;28;20410;-53
2022/03/27 05:16:33;;;;;;;32.40;13.63;;;4.40;99.90;;;;;;5009920;28;20409;-53
2022/03/27 05:18:59;;;;;;;28.13;13.63;;;3.60;99.90;;;;;;5009784;28;20412;-53
2022/03/27 05:21:25;;;;;;;29.45;12.80;;;3.50;99.90;;;;;;5009785;28;20507;-53
2022/03/27 05:23:51;;;;;;;27.03;11.83;;;3.50;99.90;;;;;;5009469;28;20862;-53
2022/03/27 05:26:17;;;;;;;29.27;11.90;;;3.60;99.90;;;;;;5010356;28;20381;-53
2022/03/27 05:28:43;;;;;;;34.15;12.80;;;3.70;99.90;;;;;;5009266;28;20419;-52
2022/03/27 05:31:09;;;;;;;25.90;12.43;;;3.80;99.90;;;;;;5010344;28;20416;-53
2022/03/27 05:33:39;;;;;;;32.33;13.20;;;3.90;99.90;;;;;;5010150;28;20395;-53
2022/03/27 05:36:09;;;;;;;28.85;12.40;;;4.00;99.90;;;;;;4998446;28;20406;-53
2022/03/27 05:38:37;;;;;;;30.52;12.88;;;4.00;99.90;;;;;;5006450;28;20393;-53
2022/03/27 05:41:03;;;;;;;30.67;13.05;;;4.20;99.90;;;;;;4996194;28;20405;-53
2022/03/27 05:43:29;;;;;;;28.38;12.18;;;4.30;99.90;;;;;;4995102;28;20412;-52
2022/03/27 05:45:54;;;;;;;25.20;12.93;;;4.60;99.90;;;;;;5006545;28;20406;-51
2022/03/27 05:48:21;;;;;;;26.95;12.50;;;5.00;99.40;;;;;;5002709;28;20433;-51
2022/03/27 05:50:46;;;;;;;31.33;13.80;;;5.30;98.20;;;;;;4989321;28;20402;-51
2022/03/27 05:53:12;;;;;;;25.80;12.30;;;5.50;96.80;;;;;;5008697;28;20492;-51
2022/03/27 05:55:38;;;;;;;26.13;12.47;;;5.90;95.00;;;;;;5009389;28;20925;-51
2022/03/27 05:58:04;;;;;;;26.20;12.13;;;6.40;94.50;;;;;;4995140;28;20482;-51
2022/03/27 06:00:30;;;;;;;30.02;13.10;;;7.10;93.00;;;;;;4990204;28;20473;-54
2022/03/27 06:02:55;;;;;;;29.05;11.73;;;7.90;90.70;;;;;;4972087;28;20845;-53
2022/03/27 06:05:25;;;;;;;25.93;12.70;;;8.80;87.40;;;;;;4990613;28;20855;-52
2022/03/27 06:07:57;;;;;;;28.83;13.52;;;9.80;80.80;;;;;;4989325;28;20857;-51
2022/03/27 06:10:31;;;;;;;31.88;13.63;;;10.80;74.40;;;;;;4990137;28;20383;-52
2022/03/27 06:12:58;;;;;;;26.13;13.18;;;11.80;69.00;;;;;;4992492;28;20391;-52
2022/03/27 06:15:25;;;;;;;29.80;13.57;;;12.40;63.00;;;;;;4993893;28;20386;-52
2022/03/27 06:17:52;;;;;;;23.80;14.15;;;12.10;61.40;;;;;;4992755;28;20399;-52
2022/03/27 06:20:20;;;;;;;29.60;15.20;;;12.30;60.60;;;;;;4993780;28;20394;-52
2022/03/27 06:22:46;;;;;;;29.50;16.00;;;12.90;58.50;;;;;;4992668;28;20875;-52
2022/03/27 06:25:14;;;;;;;26.48;15.98;;;12.90;57.60;;;;;;4993689;28;20390;-52
2022/03/27 06:27:40;;;;;;;29.95;16.83;;;13.40;99.90;;;;;;4997178;28;20415;-52
2022/03/27 06:30:10;;;;;;;27.25;13.27;;;14.30;99.90;;;;;;5002563;28;20397;-53
2022/03/27 06:32:36;;;;;;;29.08;14.30;;;14.80;99.90;;;;;;5011795;28;20412;-53
2022/03/27 06:35:05;;;;;;;27.48;14.07;;;14.70;99.90;;;;;;5012211;28;20412;-52
2022/03/27 06:37:30;;;;;;;28.95;14.82;;;14.40;99.90;;;;;;5012423;28;20417;-52
2022/03/27 06:39:56;;;;;;;27.98;15.43;;;15.00;99.90;;;;;;5011974;28;20393;-52
2022/03/27 06:42:26;;;;;;;25.30;15.50;;;15.40;99.90;;;;;;5012891;28;20770;-53
2022/03/27 06:44:52;;;;;;;28.77;16.30;;;15.90;99.90;;;;;;5010860;28;20397;-53
2022/03/27 06:47:19;;;;;;;28.03;17.43;;;16.60;99.90;;;;;;5011531;28;20889;-52
2022/03/27 06:49:45;;;;;;;27.10;17.70;;;17.00;99.90;;;;;;5011669;28;20393;-52
2022/03/27 06:52:11;;;;;;;29.17;17.95;;;16.80;99.90;;;;;;5012273;28;20866;-54
2022/03/27 06:54:37;;;;;;;28.83;17.07;;;16.90;99.90;;;;;;4994838;28;20401;-51
2022/03/27 06:57:03;;;;;;;32.03;18.65;;;17.00;99.90;;;;;;5010346;28;20417;-51
2022/03/27 07:03:01;;;;;;;27.15;16.35;;;17.70;99.90;;;;;;5007064;28;20425;-51
2022/03/27 07:04:59;;;;;;;27.40;15.73;;;18.40;99.90;;;;;;5002665;28;20502;-51
2022/03/27 07:07:25;;;;;;;26.98;15.80;;;18.60;99.90;;;;;;5011798;28;20451;-50
2022/03/27 07:09:50;;;;;;;30.48;16.63;;;18.60;99.90;;;;;;5006717;28;20409;-52
2022/03/27 07:12:16;;;;;;;29.90;16.13;;;19.10;99.90;;;;;;5012423;28;20472;-53
2022/03/27 07:14:42;;;;;;;28.10;15.90;;;19.50;99.90;;;;;;5012806;28;20864;-53
2022/03/27 07:17:07;;;;;;;29.73;16.60;;;19.20;99.90;;;;;;5008185;28;20425;-53
2022/03/27 07:19:35;;;;;;;29.20;15.83;;;19.30;99.90;;;;;;5013805;28;20419;-53
2022/03/27 07:22:01;;;;;;;29.98;16.02;;;19.30;99.90;;;;;;5011992;28;20475;-52
2022/03/27 07:24:28;;;;;;;30.27;16.63;;;19.20;99.90;;;;;;5010355;28;20419;-53
2022/03/27 07:26:54;;;;;;;32.92;18.75;;;20.00;99.90;;;;;;5009592;28;20399;-53
2022/03/27 07:29:20;;;;;;;30.50;17.33;;;19.50;99.90;;;;;;5010661;28;20412;-53
2022/03/27 07:31:48;;;;;;;29.10;16.48;;;19.30;99.90;;;;;;5008618;28;20588;-53
2022/03/27 07:34:14;;;;;;;27.70;18.48;;;19.70;99.90;;;;;;5009221;28;20439;-53
2022/03/27 07:36:40;;;;;;;30.30;17.52;;;20.70;99.90;;;;;;5004825;28;20503;-53
2022/03/27 07:39:06;;;;;;;30.93;18.07;;;20.80;99.90;;;;;;5005399;28;20536;-53
2022/03/27 07:41:32;;;;;;;33.28;17.92;;;20.90;99.90;;;;;;5009962;28;20409;-53
2022/03/27 07:43:57;;;;;;;32.38;18.02;;;20.40;99.90;;;;;;5013398;28;20401;-53
2022/03/27 07:46:23;;;;;;;28.40;17.58;;;21.10;99.90;;;;;;5024180;28;20460;-53
2022/03/27 07:48:49;;;;;;;29.77;18.20;;;21.30;99.90;;;;;;5013194;28;20580;-53
2022/03/27 07:51:15;;;;;;;29.00;17.10;;;21.60;99.90;;;;;;5012056;28;20408;-53
2022/03/27 07:53:41;;;;;;;27.65;16.52;;;21.30;99.90;;;;;;5010181;28;20497;-53
2022/03/27 07:56:06;;;;;;;27.20;16.70;;;20.70;99.90;;;;;;5016830;28;20439;-53
2022/03/27 07:58:32;;;;;;;25.33;16.23;;;21.20;99.90;;;;;;5009186;28;20425;-53
2022/03/27 08:00:58;;;;;;;29.40;16.58;;;21.70;99.90;;;;;;5009188;28;20384;-55
2022/03/27 08:03:23;;;;;;;30.25;17.30;;;22.90;99.90;;;;;;5008864;28;20427;-54
2022/03/27 08:05:50;;;;;;;27.10;17.33;;;22.50;99.90;;;;;;5009004;28;20413;-53
2022/03/27 08:08:16;;;;;;;30.10;17.13;;;23.20;99.90;;;;;;5009243;28;20487;-53
2022/03/27 08:10:43;;;;;;;27.45;17.00;;;23.20;99.90;;;;;;5010640;28;20431;-53
2022/03/27 08:13:09;;;;;;;26.93;16.57;;;23.30;99.90;;;;;;5011417;28;20454;-51
2022/03/27 08:15:34;;;;;;;27.80;17.53;;;23.80;99.90;;;;;;5002595;28;20751;-53
2022/03/27 08:18:00;;;;;;;27.47;15.47;;;23.60;99.90;;;;;;4985845;28;20414;-53
2022/03/27 08:20:27;;;;;;;28.35;18.33;;;23.50;99.90;;;;;;5010576;28;20400;-54
2022/03/27 08:22:54;;;;;;;25.58;17.70;;;23.50;99.90;;;;;;5010955;28;20502;-55
2022/03/27 08:28:06;;;;;;;25.10;15.57;;;25.10;99.90;;;;;;5009286;28;20412;-54
2022/03/27 08:30:32;;;;;;;25.30;18.45;;;26.80;99.90;;;;;;5008621;28;20411;-54
2022/03/27 08:32:58;;;;;;;24.42;18.20;;;27.00;99.90;;;;;;5005487;28;20886;-54
2022/03/27 08:35:23;;;;;;;24.77;17.77;;;27.40;99.90;;;;;;4990981;28;20491;-54
2022/03/27 08:37:49;;;;;;;25.17;17.37;;;28.10;99.90;;;;;;5003670;28;20515;-54
2022/03/27 08:40:17;;;;;;;23.20;16.17;;;28.10;99.90;;;;;;5008732;28;20436;-54
2022/03/27 08:42:44;;;;;;;22.80;16.30;;;27.90;99.90;;;;;;5009463;28;20439;-54
2022/03/27 08:45:10;;;;;;;26.45;18.33;;;28.00;99.90;;;;;;5008080;28;20415;-54
2022/03/27 08:47:39;;;;;;;27.20;17.15;;;27.80;99.90;;;;;;5009772;28;20479;-53
2022/03/27 08:50:24;;;;;;;24.25;17.25;;;27.90;99.90;;;;;;5009448;28;20405;-55
2022/03/27 08:52:56;;;;;;;27.95;18.48;;;27.20;99.90;;;;;;5009693;28;20405;-53
2022/03/27 08:55:48;;;;;;;31.88;20.80;;;26.30;99.90;;;;;;4992411;28;20496;-54
2022/03/27 08:58:14;;;;;;;28.75;18.38;;;26.10;99.90;;;;;;5008892;28;20413;-54
2022/03/27 09:00:41;;;;;;;26.17;17.73;;;26.80;99.90;;;;;;5011658;28;20420;-54
2022/03/27 09:03:07;;;;;;;26.70;18.02;;;27.60;99.90;;;;;;5021019;28;20410;-54
2022/03/27 09:05:37;;;;;;;25.75;18.80;;;28.70;99.90;;;;;;5022338;28;20381;-54
2022/03/27 09:08:09;;;;;;;26.75;18.00;;;29.10;99.90;;;;;;5024947;28;20472;-54
2022/03/27 09:10:36;;;;;;;26.13;19.00;;;29.10;99.90;;;;;;5009658;28;20472;-54
2022/03/27 09:13:03;;;;;;;29.63;19.65;;;29.00;99.90;;;;;;5008872;28;20389;-53
2022/03/27 09:15:30;;;;;;;25.30;18.98;;;28.80;99.90;;;;;;4978772;28;20507;-54
2022/03/27 09:18:10;;;;;;;23.92;17.65;;;29.00;99.90;;;;;;5008897;28;20839;-54
2022/03/27 09:20:47;;;;;;;29.08;18.88;;;28.40;99.90;;;;;;5009693;28;20402;-54
2022/03/27 09:23:31;;;;;;;25.45;19.30;;;28.00;99.90;;;;;;5009347;28;20938;-54
2022/03/27 09:26:09;;;;;;;26.52;18.80;;;28.30;99.90;;;;;;4990351;28;20436;-53
2022/03/27 09:28:46;;;;;;;27.25;18.35;;;28.60;99.90;;;;;;5010347;28;20392;-53
2022/03/27 09:31:17;;;;;;;26.45;18.13;;;27.80;99.90;;;;;;5007375;28;20417;-53
2022/03/27 09:33:48;;;;;;;22.20;17.23;;;28.10;99.90;;;;;;4990925;28;20440;-53
2022/03/27 09:36:20;;;;;;;26.35;17.77;;;28.70;99.90;;;;;;5007917;28;20416;-54
2022/03/27 09:39:05;;;;;;;24.80;18.23;;;28.80;99.90;;;;;;5022100;28;20456;-53
2022/03/27 09:41:58;;;;;;;27.55;18.50;;;28.50;99.90;;;;;;5015602;28;20450;-54
2022/03/27 09:44:36;;;;;;;24.77;17.33;;;28.60;99.90;;;;;;4999718;28;20455;-54
2022/03/27 09:47:06;;;;;;;24.42;16.90;;;28.50;99.90;;;;;;5009886;28;20455;-54
2022/03/27 09:49:34;;;;;;;21.63;17.00;;;28.20;99.90;;;;;;5011344;28;20423;-54
2022/03/27 09:52:08;;;;;;;21.73;16.20;;;28.10;99.90;;;;;;5015331;28;20770;-54
2022/03/27 09:54:54;;;;;;;22.65;15.60;;;28.90;99.90;;;;;;5010332;28;20417;-54
2022/03/27 09:57:19;;;;;;;24.20;16.08;;;29.00;99.90;;;;;;5021888;28;20476;-54
2022/03/27 09:59:46;;;;;;;23.80;17.87;;;29.50;99.90;;;;;;5015884;28;20395;-54
2022/03/27 10:02:24;;;;;;;21.98;15.32;;;29.50;99.90;;;;;;5011681;28;20442;-54
2022/03/27 10:05:15;;;;;;;23.35;16.73;;;30.00;99.90;;;;;;5003730;28;20470;-54
2022/03/27 10:07:50;;;;;;;23.48;18.40;;;29.70;99.90;;;;;;5008892;28;20909;-54
2022/03/27 10:10:24;;;;;;;26.87;18.57;;;29.90;99.90;;;;;;5012455;28;21055;-55
2022/03/27 10:12:51;;;;;;;24.27;17.85;;;28.20;99.90;;;;;;5015674;28;20407;-55
2022/03/27 10:15:24;;;;;;;26.52;16.67;;;27.50;99.90;;;;;;5021060;28;20412;-55
2022/03/27 10:18:13;;;;;;;23.92;15.73;;;28.30;99.90;;;;;;5010243;28;20428;-55
2022/03/27 10:20:40;;;;;;;24.10;15.88;;;29.30;99.90;;;;;;5006697;28;20499;-56
2022/03/27 10:23:26;;;;;;;25.02;16.70;;;29.20;99.90;;;;;;5011678;28;20411;-55
2022/03/27 10:26:01;;;;;;;24.33;15.90;;;29.20;99.90;;;;;;5006824;28;20448;-55
2022/03/27 10:28:28;;;;;;;28.17;16.80;;;28.70;99.90;;;;;;5011961;28;20439;-55
2022/03/27 10:30:55;;;;;;;25.63;18.20;;;28.80;99.90;;;;;;5007417;28;20411;-55
2022/03/27 10:33:25;;;;;;;24.95;16.33;;;28.10;99.90;;;;;;5012209;28;20393;-55
2022/03/27 10:36:11;;;;;;;24.27;15.98;;;28.50;99.90;;;;;;5017497;28;20905;-56
2022/03/27 10:38:58;;;;;;;24.35;16.27;;;28.30;99.90;;;;;;5019838;28;20395;-55
2022/03/27 10:41:34;;;;;;;25.40;16.35;;;28.70;99.90;;;;;;5011695;28;20406;-55
2022/03/27 10:44:03;;;;;;;24.02;18.60;;;28.80;99.90;;;;;;5008968;28;20409;-56
2022/03/27 10:46:29;;;;;;;26.75;18.00;;;28.10;99.90;;;;;;5011346;28;20477;-55
2022/03/27 10:49:16;;;;;;;22.97;17.20;;;28.60;99.90;;;;;;5019551;28;20387;-55
2022/03/27 10:51:46;;;;;;;23.17;16.63;;;29.20;99.90;;;;;;5026702;28;20396;-55
2022/03/27 10:54:16;;;;;;;24.73;16.70;;;28.60;99.90;;;;;;5028236;28;20478;-55
2022/03/27 10:56:43;;;;;;;27.08;17.73;;;28.10;99.90;;;;;;5015061;28;20410;-55
2022/03/27 10:59:18;;;;;;;24.63;18.25;;;27.80;99.90;;;;;;5015645;28;20403;-55
2022/03/27 11:01:49;;;;;;;29.33;18.17;;;28.10;99.90;;;;;;5009662;28;20477;-55
2022/03/27 11:04:20;;;;;;;24.83;16.30;;;28.40;99.90;;;;;;5028334;28;20395;-55
2022/03/27 11:06:51;;;;;;;24.63;15.83;;;27.90;99.90;;;;;;5024978;28;20408;-55
2022/03/27 11:09:34;;;;;;;25.13;16.27;;;27.00;99.90;;;;;;5015575;28;20400;-54
2022/03/27 11:12:01;;;;;;;26.83;16.88;;;27.10;99.90;;;;;;5015740;28;20770;-55
2022/03/27 11:15:03;;;;;;;25.63;17.40;;;27.00;99.90;;;;;;5002682;28;20514;-55
2022/03/27 11:17:40;;;;;;;25.52;17.05;;;27.40;99.90;;;;;;4988197;28;20433;-55
2022/03/27 11:20:11;;;;;;;23.73;16.23;;;27.30;99.90;;;;;;5010450;28;20411;-55
2022/03/27 11:22:58;;;;;;;27.13;18.17;;;26.50;99.90;;;;;;5021648;28;20427;-55
2022/03/27 11:25:37;;;;;;;25.38;17.17;;;26.00;99.90;;;;;;5014588;28;20525;-55
2022/03/27 11:28:03;;;;;;;26.23;17.73;;;25.80;99.90;;;;;;5015771;28;20504;-54
2022/03/27 11:30:30;;;;;;;26.85;18.17;;;26.20;99.90;;;;;;5015805;28;20495;-55
2022/03/27 11:33:15;;;;;;;26.27;16.20;;;26.40;99.90;;;;;;5000591;28;20416;-55
2022/03/27 11:35:42;;;;;;;24.60;16.90;;;26.20;99.90;;;;;;5009878;28;20425;-54
2022/03/27 11:38:29;;;;;;;25.15;17.60;;;25.80;99.90;;;;;;5010405;28;21384;-54
2022/03/27 11:40:55;;;;;;;26.03;17.70;;;24.30;99.90;;;;;;5012762;28;20401;-55
2022/03/27 11:43:36;;;;;;;23.25;16.75;;;23.80;99.90;;;;;;5010022;28;20817;-55
2022/03/27 11:46:02;;;;;;;25.00;16.53;;;23.60;99.90;;;;;;5006045;28;20425;-55
2022/03/27 11:48:28;;;;;;;24.63;17.13;;;23.50;99.90;;;;;;5011176;28;20391;-55
2022/03/27 11:50:55;;;;;;;25.80;17.40;;;23.30;99.90;;;;;;5010347;28;20400;-55
2022/03/27 11:53:32;;;;;;;23.20;15.80;;;23.30;99.90;;;;;;5018234;28;20397;-55
2022/03/27 11:56:09;;;;;;;29.30;18.10;;;23.70;99.90;;;;;;5020675;28;20411;-55
2022/03/27 11:58:36;;;;;;;24.52;16.85;;;23.70;99.90;;;;;;5013474;28;20410;-54
2022/03/27 12:01:08;;;;;;;27.83;17.08;;;23.70;99.90;;;;;;5019701;28;20395;-55
2022/03/27 12:03:35;;;;;;;26.27;16.60;;;23.60;99.90;;;;;;5008610;28;20395;-55
2022/03/27 12:06:11;;;;;;;26.98;16.55;;;23.70;99.90;;;;;;5010586;28;20391;-55
2022/03/27 12:08:42;;;;;;;26.23;17.27;;;23.50;99.90;;;;;;5013904;28;20496;-55
2022/03/27 12:11:08;;;;;;;24.77;16.50;;;23.40;99.90;;;;;;5008654;28;20491;-55
2022/03/27 12:13:43;;;;;;;25.55;14.32;;;23.30;99.90;;;;;;4990077;28;20397;-55
2022/03/27 12:16:46;;;;;;;22.60;14.07;;;23.50;99.90;;;;;;5000456;28;20419;-55
2022/03/27 12:19:15;;;;;;;21.63;13.57;;;23.20;99.90;;;;;;4981112;28;20401;-55
2022/03/27 12:21:46;;;;;;;23.50;14.00;;;23.30;99.90;;;;;;5006566;28;20431;-55
2022/03/27 12:24:13;;;;;;;22.27;13.48;;;22.50;99.90;;;;;;5005178;28;20501;-53
2022/03/27 12:29:40;;;;;;;25.70;13.10;;;21.80;99.90;;;;;;5021149;28;20485;-54
2022/03/27 12:32:07;;;;;;;19.38;12.68;;;22.20;99.90;;;;;;5019008;28;20669;-54
2022/03/27 12:34:34;;;;;;;17.92;13.13;;;22.20;99.90;;;;;;5017624;28;20428;-54
2022/03/27 12:37:21;;;;;;;20.75;13.30;;;22.30;99.90;;;;;;5010587;28;20418;-55
2022/03/27 12:39:49;;;;;;;24.45;13.60;;;22.80;99.90;;;;;;5007947;28;20423;-54
2022/03/27 12:42:36;;;;;;;21.20;12.85;;;23.10;99.90;;;;;;5013310;28;20437;-53
2022/03/27 12:45:08;;;;;;;25.35;13.25;;;22.90;99.90;;;;;;5012009;28;21436;-55
2022/03/27 12:47:50;;;;;;;17.75;12.00;;;23.00;99.90;;;;;;5021894;28;20393;-55
2022/03/27 12:50:34;;;;;;;20.47;12.40;;;22.90;99.90;;;;;;4995871;28;20770;-54